Automated Weather Station

Magsaysay, Infanta, Quezon


Readings

as of November 11, 2016 04:01 PM
Wind Speed
3.4 mm
Rainfall Amount
0.14 mm
Rainfall Intensity
11.3 mm
Air Temperature
mm
Wind Direction
96 mm
Air Humidity
97.7 mm

Data Source: PREDICT (Advanced Science and Technology Institute)

12 HOUR DATA

PREVIOUS DATA

From
To
DateTime Wind Speed Rain Amount Rain Intensity Air Temperature Air Pressure Wind Direction Air Humidity
October 28, 2016 12:02 AM 17.2 0 mm 0 21.9 928.7 66 98
October 27, 2016 11:01 PM 14 0 mm 0 22.3 929.5 58 95.2
October 27, 2016 09:01 PM 19.1 0 mm 0 22.3 929.63 38 97.6
October 27, 2016 08:03 PM 8.4 0 mm 0 22.3 929.5 65 97.3
October 27, 2016 07:01 PM 4.7 0 mm 0 22.3 929.23 38 97.3
October 27, 2016 06:01 PM 7.1 0 mm 0 22.1 928.3 60 97.8
October 27, 2016 05:01 PM 8.8 0 mm 0 22.4 928.17 33 93.7
October 27, 2016 04:01 PM 8.4 0 mm 0 23 928.83 30 91.4
October 27, 2016 03:01 PM 5.7 0 mm 0 23.6 928.7 78 91.8
October 27, 2016 02:02 PM 5.4 0 mm 0 22.8 928.57 1 93.3
October 27, 2016 01:01 PM 3.3 0 mm 0 22.9 929.1 349 98.3
October 27, 2016 12:01 PM 12.3 0 mm 0 22.6 930.03 38 96.4
October 27, 2016 11:01 AM 8 0 mm 0.7 22 930.57 54 98.2
October 27, 2016 09:01 AM 7.7 0 mm 0 23 931.23 15 94
October 27, 2016 08:01 AM 9.2 0 mm 0 22.3 931.23 58 97.1
October 27, 2016 07:01 AM 6.8 0 mm 0 22 930.83 46 99.2
October 27, 2016 06:01 AM 18.2 0.06 mm 3.5 22 929.9 50 99.1
October 27, 2016 05:01 AM 8.1 0 mm 0 22 929.63 71 98.5
October 27, 2016 04:01 AM 9.2 0 mm 0 22.2 928.97 19 96.6
October 27, 2016 03:01 AM 14.8 0 mm 0 22.1 929.1 3 96
October 27, 2016 02:02 AM 9.5 0 mm 0 22.1 929.37 35 97.4
October 27, 2016 01:01 AM 6.7 0 mm 0 22 929.9 47 99.1
October 27, 2016 12:01 AM 15.9 0 mm 0 22.1 930.3 84 99.4
October 26, 2016 11:01 PM 12.3 0 mm 0 22.1 930.43 88 99.3
October 26, 2016 10:02 PM 9.7 0 mm 0 22.2 930.43 2 99.3
October 26, 2016 09:01 PM 12 0 mm 0 22.3 930.57 22 99.4
October 26, 2016 08:01 PM 6.8 0 mm 0 22.2 930.7 354 99.3
October 26, 2016 07:02 PM 14.9 0 mm 0 22.2 929.63 27 99.3
October 26, 2016 06:03 PM 11.3 0 mm 0 22 929.23 58 99
October 26, 2016 04:02 PM 9 0 mm 0 22.1 927.9 16 98